Time;durP1;ratioP1;P1;durP2;ratioP2;P2;SDS_P1;SDS_P2;PMS_P1;PMS_P2;Temp;Humidity;BMP_temperature;BMP_pressure;BME280_temperature;BME280_humidity;BME280_pressure;Samples;Min_cycle;Max_cycle;Signal;HPM_P1;HPM_P2
2022/06/18 00:00:24;;;;;;;;;;;13.40;99.90;;;;;;5015121;28;19956;-79
2022/06/18 00:02:51;;;;;;;;;;;13.40;99.90;;;;;;5014972;28;19909;-78
2022/06/18 00:05:19;;;;;;;;;;;13.40;99.90;;;;;;5014632;28;19909;-79
2022/06/18 00:07:48;;;;;;;;;;;13.50;99.90;;;;;;5014058;28;19910;-79
2022/06/18 00:10:16;;;;;;;;;;;13.60;99.90;;;;;;5014319;28;19914;-77
2022/06/18 00:15:30;;;;;;;;;;;13.70;99.90;;;;;;5014688;28;19916;-77
2022/06/18 00:17:56;;;;;;;;;;;13.80;99.90;;;;;;5014278;28;19910;-78
2022/06/18 00:20:25;;;;;;;;;;;13.80;99.90;;;;;;5024706;28;19920;-77
2022/06/18 00:22:53;;;;;;;;;;;14.00;99.90;;;;;;5013883;28;20276;-80
2022/06/18 00:25:39;;;;;;;;;;;14.10;99.90;;;;;;5013773;28;20261;-79
2022/06/18 00:28:21;;;;;;;;;;;14.10;99.90;;;;;;5013536;28;19917;-81
2022/06/18 00:30:49;;;;;;;;;;;14.10;99.90;;;;;;5012797;28;19920;-80
2022/06/18 00:33:16;;;;;;;;;;;14.20;99.90;;;;;;5013479;28;19921;-81
2022/06/18 00:35:43;;;;;;;;;;;14.30;99.90;;;;;;5044568;28;19914;-80
2022/06/18 00:38:15;;;;;;;;;;;14.40;99.90;;;;;;5013395;28;19913;-80
2022/06/18 00:40:43;;;;;;;;;;;14.50;99.90;;;;;;5013293;28;19909;-79
2022/06/18 00:43:28;;;;;;;;;;;14.60;99.90;;;;;;5013164;28;19968;-81
2022/06/18 00:45:57;;;;;;;;;;;14.70;99.90;;;;;;5013409;28;20008;-78
2022/06/18 00:48:46;;;;;;;;;;;14.80;99.90;;;;;;5013038;28;19971;-80
2022/06/18 00:51:20;;;;;;;;;;;14.80;99.90;;;;;;5012309;28;19920;-79
2022/06/18 00:53:56;;;;;;;;;;;14.80;99.90;;;;;;5012468;28;19948;-80
2022/06/18 00:56:42;;;;;;;;;;;14.80;99.90;;;;;;5012158;28;19910;-79
2022/06/18 00:59:31;;;;;;;;;;;15.00;99.90;;;;;;5012580;28;19910;-80
2022/06/18 01:01:59;;;;;;;;;;;15.10;99.90;;;;;;5012091;28;19932;-74
2022/06/18 01:04:33;;;;;;;;;;;15.40;99.90;;;;;;5011932;28;19909;-74
2022/06/18 01:07:15;;;;;;;;;;;15.30;99.90;;;;;;5011987;28;20371;-74
2022/06/18 01:09:43;;;;;;;;;;;15.40;99.90;;;;;;5011811;28;19956;-75
2022/06/18 01:12:10;;;;;;;;;;;15.30;99.90;;;;;;5011784;28;19941;-74
2022/06/18 01:14:37;;;;;;;;;;;15.30;99.90;;;;;;5011968;28;20012;-72
2022/06/18 01:17:04;;;;;;;;;;;15.20;99.90;;;;;;5012026;28;19917;-73
2022/06/18 01:19:33;;;;;;;;;;;15.20;99.90;;;;;;5011534;28;19995;-73
2022/06/18 01:22:17;;;;;;;;;;;15.30;99.90;;;;;;5011824;28;19910;-73
2022/06/18 01:24:44;;;;;;;;;;;15.30;99.90;;;;;;5011680;28;19910;-72
2022/06/18 01:27:11;;;;;;;;;;;15.30;99.90;;;;;;5011366;28;19914;-72
2022/06/18 01:29:38;;;;;;;;;;;15.40;99.90;;;;;;5011466;28;19909;-73
2022/06/18 01:32:07;;;;;;;;;;;15.40;99.90;;;;;;5011716;28;20364;-73
2022/06/18 01:34:34;;;;;;;;;;;15.50;99.90;;;;;;5011585;28;20364;-73
2022/06/18 01:37:02;;;;;;;;;;;15.50;99.90;;;;;;5011407;28;19916;-73
2022/06/18 01:39:31;;;;;;;;;;;15.50;99.90;;;;;;5011498;28;19936;-73
2022/06/18 01:42:03;;;;;;;;;;;15.60;99.90;;;;;;5010219;28;19957;-74
2022/06/18 01:44:34;;;;;;;;;;;15.70;99.90;;;;;;5042904;28;19956;-76
2022/06/18 01:47:20;;;;;;;;;;;15.80;99.90;;;;;;5012164;28;19996;-74
2022/06/18 01:49:53;;;;;;;;;;;15.80;99.90;;;;;;5051073;28;19995;-73
2022/06/18 01:52:23;;;;;;;;;;;15.80;99.90;;;;;;4924862;28;3633599;-74
2022/06/18 01:54:56;;;;;;;;;;;15.80;99.90;;;;;;5052379;28;19920;-79
2022/06/18 01:57:45;;;;;;;;;;;15.90;99.90;;;;;;5052464;28;19912;-80
2022/06/18 02:00:14;;;;;;;;;;;16.00;99.90;;;;;;5052574;28;19966;-79
2022/06/18 02:02:45;;;;;;;;;;;16.10;99.90;;;;;;5067821;28;19909;-78
2022/06/18 02:05:13;;;;;;;;;;;16.10;99.90;;;;;;5052298;28;20320;-77
2022/06/18 02:07:43;;;;;;;;;;;16.00;99.90;;;;;;5052018;28;20286;-80
2022/06/18 02:10:19;;;;;;;;;;;15.80;99.90;;;;;;5054219;28;19952;-76
2022/06/18 02:12:46;;;;;;;;;;;15.70;99.90;;;;;;5052254;28;19917;-78
2022/06/18 02:15:14;;;;;;;;;;;15.70;99.90;;;;;;5052256;28;19909;-79
2022/06/18 02:17:42;;;;;;;;;;;15.80;99.90;;;;;;5052082;28;19909;-80
2022/06/18 02:20:11;;;;;;;;;;;15.90;99.90;;;;;;5052042;28;19909;-81
2022/06/18 02:22:41;;;;;;;;;;;15.90;99.90;;;;;;5052180;28;19951;-78
2022/06/18 02:25:08;;;;;;;;;;;15.90;99.90;;;;;;5052199;28;19996;-80
2022/06/18 02:27:35;;;;;;;;;;;15.90;99.90;;;;;;5052069;28;20260;-80
2022/06/18 02:30:02;;;;;;;;;;;15.90;99.90;;;;;;5052197;28;19913;-79
2022/06/18 02:32:35;;;;;;;;;;;15.90;99.90;;;;;;5051767;28;20280;-82
2022/06/18 02:35:08;;;;;;;;;;;15.90;99.90;;;;;;5051768;28;20320;-78
2022/06/18 02:37:35;;;;;;;;;;;15.90;99.90;;;;;;5051945;28;19909;-80
2022/06/18 02:40:02;;;;;;;;;;;15.80;99.90;;;;;;5050774;28;19908;-80
2022/06/18 02:42:33;;;;;;;;;;;15.90;99.90;;;;;;5051880;28;19912;-80
2022/06/18 02:45:00;;;;;;;;;;;16.00;99.90;;;;;;5052157;28;19991;-80
2022/06/18 02:47:27;;;;;;;;;;;15.90;99.90;;;;;;5052172;28;19920;-80
2022/06/18 02:50:19;;;;;;;;;;;15.90;99.90;;;;;;5051187;28;20271;-80
2022/06/18 02:52:54;;;;;;;;;;;15.90;99.90;;;;;;5052840;28;19937;-79
2022/06/18 02:55:30;;;;;;;;;;;16.00;99.90;;;;;;5055717;28;19909;-80
2022/06/18 02:58:03;;;;;;;;;;;16.10;99.90;;;;;;5055716;28;19909;-80
2022/06/18 03:00:31;;;;;;;;;;;16.20;99.90;;;;;;5055679;28;19961;-80
2022/06/18 03:02:58;;;;;;;;;;;16.30;99.90;;;;;;5055368;28;20218;-80
2022/06/18 03:05:27;;;;;;;;;;;16.30;99.90;;;;;;5055474;28;19920;-81
2022/06/18 03:07:54;;;;;;;;;;;16.40;99.90;;;;;;5055103;28;19912;-78
2022/06/18 03:13:06;;;;;;;;;;;16.40;99.90;;;;;;5055340;28;20067;-81
2022/06/18 03:15:33;;;;;;;;;;;16.30;99.90;;;;;;5055096;28;19952;-80
2022/06/18 03:18:00;;;;;;;;;;;16.30;99.90;;;;;;5055169;28;19909;-80
2022/06/18 03:20:41;;;;;;;;;;;16.20;99.90;;;;;;5055118;28;19909;-79
2022/06/18 03:23:12;;;;;;;;;;;16.20;99.90;;;;;;5055236;28;19915;-78
2022/06/18 03:25:39;;;;;;;;;;;16.20;99.90;;;;;;5054993;28;19951;-81
2022/06/18 03:28:05;;;;;;;;;;;16.20;99.90;;;;;;5054880;28;19916;-80
2022/06/18 03:30:32;;;;;;;;;;;16.30;99.90;;;;;;5054929;28;20006;-79
2022/06/18 03:32:59;;;;;;;;;;;16.30;99.90;;;;;;5054500;28;20351;-78
2022/06/18 03:35:25;;;;;;;;;;;16.30;99.90;;;;;;5055130;28;20041;-80
2022/06/18 03:37:52;;;;;;;;;;;16.20;99.90;;;;;;5054700;28;19916;-81
2022/06/18 03:40:20;;;;;;;;;;;16.20;99.90;;;;;;5054711;28;19909;-80
2022/06/18 03:42:47;;;;;;;;;;;16.20;99.90;;;;;;5054593;28;19924;-79
2022/06/18 03:45:14;;;;;;;;;;;16.20;99.90;;;;;;5054662;28;19912;-80
2022/06/18 03:47:41;;;;;;;;;;;16.30;99.90;;;;;;5054262;28;20057;-80
2022/06/18 03:50:12;;;;;;;;;;;16.30;99.90;;;;;;5054703;28;20279;-81
2022/06/18 03:52:38;;;;;;;;;;;16.40;99.90;;;;;;5054287;28;20012;-81
2022/06/18 03:55:05;;;;;;;;;;;16.40;99.90;;;;;;5054445;28;19919;-80
2022/06/18 03:57:32;;;;;;;;;;;16.50;99.90;;;;;;5054355;28;19916;-81
2022/06/18 03:59:59;;;;;;;;;;;16.40;99.90;;;;;;5054422;28;19916;-80
2022/06/18 04:02:26;;;;;;;;;;;16.30;99.90;;;;;;5054446;28;19909;-79
2022/06/18 04:04:52;;;;;;;;;;;16.20;99.90;;;;;;5053333;28;19909;-79
2022/06/18 04:07:22;;;;;;;;;;;16.20;99.90;;;;;;5054298;28;19908;-77
2022/06/18 04:09:53;;;;;;;;;;;16.20;99.90;;;;;;5069328;28;19909;-80
2022/06/18 04:12:20;;;;;;;;;;;16.30;99.90;;;;;;5053892;28;20314;-77
2022/06/18 04:14:47;;;;;;;;;;;16.20;99.90;;;;;;5054321;28;20371;-80
2022/06/18 04:17:14;;;;;;;;;;;16.20;99.90;;;;;;5054048;28;19916;-79
2022/06/18 04:19:41;;;;;;;;;;;16.10;99.90;;;;;;5053556;28;19909;-78
2022/06/18 04:22:09;;;;;;;;;;;16.10;99.90;;;;;;5054162;28;19943;-83
2022/06/18 04:24:35;;;;;;;;;;;16.20;99.90;;;;;;5054113;28;19913;-80
2022/06/18 04:27:04;;;;;;;;;;;16.30;99.90;;;;;;5053961;28;19909;-80
2022/06/18 04:29:31;;;;;;;;;;;16.30;99.90;;;;;;5053840;28;19963;-77
2022/06/18 04:31:59;;;;;;;;;;;16.20;99.90;;;;;;5053823;28;20011;-80
2022/06/18 04:34:26;;;;;;;;;;;16.10;99.90;;;;;;5053702;28;19908;-79
2022/06/18 04:36:53;;;;;;;;;;;16.10;99.90;;;;;;5053784;28;19909;-78
2022/06/18 04:39:21;;;;;;;;;;;16.10;99.90;;;;;;5053713;28;19948;-78
2022/06/18 04:41:47;;;;;;;;;;;16.10;99.90;;;;;;5053257;28;19974;-80
2022/06/18 04:44:14;;;;;;;;;;;16.00;99.90;;;;;;5053520;28;20046;-78
2022/06/18 04:46:41;;;;;;;;;;;15.90;99.90;;;;;;5053569;28;20252;-78
2022/06/18 04:49:08;;;;;;;;;;;15.90;99.90;;;;;;5053287;28;19909;-81
2022/06/18 04:51:34;;;;;;;;;;;15.90;99.90;;;;;;5053198;28;19920;-79
2022/06/18 04:54:01;;;;;;;;;;;15.90;99.90;;;;;;5047753;28;20431;-75
2022/06/18 04:56:28;;;;;;;;;;;15.90;99.90;;;;;;5022922;28;19955;-79
2022/06/18 04:58:55;;;;;;;;;;;16.00;99.90;;;;;;5013044;28;19967;-78
2022/06/18 05:01:27;;;;;;;;;;;16.00;99.90;;;;;;5017377;28;19909;-80
2022/06/18 05:03:53;;;;;;;;;;;16.00;99.90;;;;;;5052953;28;20413;-77
2022/06/18 05:06:20;;;;;;;;;;;15.90;99.90;;;;;;5053096;28;19916;-74
2022/06/18 05:08:47;;;;;;;;;;;15.80;99.90;;;;;;5053055;28;19913;-78
2022/06/18 05:11:13;;;;;;;;;;;15.80;99.90;;;;;;5053055;28;19962;-80
2022/06/18 05:13:40;;;;;;;;;;;15.80;99.90;;;;;;5051731;28;20482;-81
2022/06/18 05:16:08;;;;;;;;;;;15.70;99.90;;;;;;5053133;28;19916;-78
2022/06/18 05:18:35;;;;;;;;;;;15.70;99.90;;;;;;5052980;28;19913;-80
2022/06/18 05:21:02;;;;;;;;;;;15.70;99.90;;;;;;5053055;28;19999;-80
2022/06/18 05:23:29;;;;;;;;;;;15.70;99.90;;;;;;5051908;28;20359;-77
2022/06/18 05:25:57;;;;;;;;;;;15.70;99.90;;;;;;5055580;28;19916;-77
2022/06/18 05:28:23;;;;;;;;;;;15.80;99.90;;;;;;5053671;28;19916;-76
2022/06/18 05:30:50;;;;;;;;;;;15.80;99.90;;;;;;5053539;28;20267;-73
2022/06/18 05:33:17;;;;;;;;;;;15.80;99.90;;;;;;5052968;28;19921;-74
2022/06/18 05:35:44;;;;;;;;;;;15.80;99.90;;;;;;5053055;28;20019;-73
2022/06/18 05:38:16;;;;;;;;;;;15.80;99.90;;;;;;5053163;28;19909;-75
2022/06/18 05:40:42;;;;;;;;;;;15.80;99.90;;;;;;5053163;28;19909;-73
2022/06/18 05:43:10;;;;;;;;;;;15.80;99.90;;;;;;5052939;28;19982;-74
2022/06/18 05:45:36;;;;;;;;;;;15.80;99.90;;;;;;5052565;28;20367;-75
2022/06/18 05:48:04;;;;;;;;;;;15.80;99.90;;;;;;5052560;28;19935;-73
2022/06/18 05:50:30;;;;;;;;;;;15.80;99.90;;;;;;5052771;28;19908;-73
2022/06/18 05:52:57;;;;;;;;;;;15.80;99.90;;;;;;5052344;28;19928;-73
2022/06/18 05:55:25;;;;;;;;;;;15.70;99.90;;;;;;5068304;28;19913;-73
2022/06/18 05:57:53;;;;;;;;;;;15.70;99.90;;;;;;5052499;28;19916;-73
2022/06/18 06:00:21;;;;;;;;;;;15.70;99.90;;;;;;5052687;28;20236;-73
2022/06/18 06:02:48;;;;;;;;;;;15.70;99.90;;;;;;5052258;28;20347;-73
2022/06/18 06:05:15;;;;;;;;;;;15.70;99.90;;;;;;5052338;28;19920;-73
2022/06/18 06:07:44;;;;;;;;;;;15.60;99.90;;;;;;5052312;28;19956;-78
2022/06/18 06:13:04;;;;;;;;;;;15.60;99.90;;;;;;5052636;28;19923;-74
2022/06/18 06:15:30;;;;;;;;;;;15.60;99.90;;;;;;5052234;28;19909;-73
2022/06/18 06:17:57;;;;;;;;;;;15.50;99.90;;;;;;5052367;28;20367;-74
2022/06/18 06:20:31;;;;;;;;;;;15.50;99.90;;;;;;5052503;28;19908;-74
2022/06/18 06:22:58;;;;;;;;;;;15.60;99.90;;;;;;5052375;28;19908;-75
2022/06/18 06:25:25;;;;;;;;;;;15.50;99.90;;;;;;5052268;28;19932;-76
2022/06/18 06:27:52;;;;;;;;;;;15.50;99.90;;;;;;5052990;28;19916;-76
2022/06/18 06:30:19;;;;;;;;;;;15.50;99.90;;;;;;5056282;28;19909;-76
2022/06/18 06:32:46;;;;;;;;;;;15.40;99.90;;;;;;5055573;28;19992;-74
2022/06/18 06:35:14;;;;;;;;;;;15.40;99.90;;;;;;5056017;28;19916;-72
2022/06/18 06:37:41;;;;;;;;;;;15.30;99.90;;;;;;5055966;28;19909;-77
2022/06/18 06:40:08;;;;;;;;;;;15.30;99.90;;;;;;5056121;28;19963;-72
2022/06/18 06:42:49;;;;;;;;;;;15.30;99.90;;;;;;5056185;28;19952;-75
2022/06/18 06:45:17;;;;;;;;;;;15.30;99.90;;;;;;5055979;28;19939;-73
2022/06/18 06:47:44;;;;;;;;;;;15.30;99.90;;;;;;5055533;28;19916;-74
2022/06/18 06:50:12;;;;;;;;;;;15.30;99.90;;;;;;5055842;28;20268;-74
2022/06/18 06:52:40;;;;;;;;;;;15.20;99.90;;;;;;5055558;28;20388;-77
2022/06/18 06:57:56;;;;;;;;;;;15.20;99.90;;;;;;5055912;28;19936;-74
2022/06/18 07:00:23;;;;;;;;;;;15.20;99.90;;;;;;5055605;28;19912;-75
2022/06/18 07:02:49;;;;;;;;;;;15.20;99.90;;;;;;5055596;28;20318;-75
2022/06/18 07:05:16;;;;;;;;;;;15.20;99.90;;;;;;5055579;28;19909;-75
2022/06/18 07:07:43;;;;;;;;;;;15.20;99.90;;;;;;5055317;28;19948;-75
2022/06/18 07:10:10;;;;;;;;;;;15.20;99.90;;;;;;5055229;28;19912;-76
2022/06/18 07:12:38;;;;;;;;;;;15.20;99.90;;;;;;5054744;28;20296;-79
2022/06/18 07:15:05;;;;;;;;;;;15.10;99.90;;;;;;5055336;28;19913;-74
2022/06/18 07:17:33;;;;;;;;;;;15.20;99.90;;;;;;5054684;28;19955;-74
2022/06/18 07:20:00;;;;;;;;;;;15.10;99.90;;;;;;5055247;28;20279;-75
2022/06/18 07:22:27;;;;;;;;;;;15.10;99.90;;;;;;5054556;28;20363;-74
2022/06/18 07:24:53;;;;;;;;;;;15.10;99.90;;;;;;5055193;28;20379;-76
2022/06/18 07:27:20;;;;;;;;;;;15.10;99.90;;;;;;5055267;28;19909;-75
2022/06/18 07:29:47;;;;;;;;;;;15.10;99.90;;;;;;5055252;28;19909;-74
2022/06/18 07:32:15;;;;;;;;;;;15.10;99.90;;;;;;5054931;28;19917;-74
2022/06/18 07:34:42;;;;;;;;;;;15.10;99.90;;;;;;5055031;28;19909;-73
2022/06/18 07:37:09;;;;;;;;;;;15.10;99.90;;;;;;5054998;28;19916;-73
2022/06/18 07:39:35;;;;;;;;;;;15.10;99.90;;;;;;5054688;28;19955;-74
2022/06/18 07:42:03;;;;;;;;;;;15.00;99.90;;;;;;5054941;28;19910;-73
2022/06/18 07:44:30;;;;;;;;;;;15.00;99.90;;;;;;5054832;28;19931;-73
2022/06/18 07:47:03;;;;;;;;;;;15.00;99.90;;;;;;5054701;28;20379;-76
2022/06/18 07:49:31;;;;;;;;;;;14.90;99.90;;;;;;5052175;28;20034;-75
2022/06/18 07:51:57;;;;;;;;;;;14.90;99.90;;;;;;5032311;28;19918;-74
2022/06/18 07:54:24;;;;;;;;;;;14.80;99.90;;;;;;5012540;28;19922;-74
2022/06/18 07:56:51;;;;;;;;;;;14.80;99.90;;;;;;5012234;28;19909;-74
2022/06/18 07:59:20;;;;;;;;;;;14.80;99.90;;;;;;5012868;28;19909;-73
2022/06/18 08:01:50;;;;;;;;;;;14.70;99.90;;;;;;5012427;28;19948;-78
2022/06/18 08:04:17;;;;;;;;;;;14.70;99.90;;;;;;5012157;28;19921;-77
2022/06/18 08:06:44;;;;;;;;;;;14.70;99.90;;;;;;5012748;28;20019;-76
2022/06/18 08:09:10;;;;;;;;;;;14.80;99.90;;;;;;5012450;28;19916;-73
2022/06/18 08:11:38;;;;;;;;;;;14.80;99.90;;;;;;5012497;28;19909;-75
2022/06/18 08:14:05;;;;;;;;;;;14.70;99.90;;;;;;5012409;28;20442;-79
2022/06/18 08:16:32;;;;;;;;;;;14.70;99.90;;;;;;5011206;28;19917;-76
2022/06/18 08:18:58;;;;;;;;;;;14.80;99.90;;;;;;4996666;28;19965;-78
2022/06/18 08:21:34;;;;;;;;;;;14.80;99.90;;;;;;4992534;28;20293;-77
2022/06/18 08:24:02;;;;;;;;;;;14.80;99.90;;;;;;4992531;28;20012;-77
2022/06/18 08:26:30;;;;;;;;;;;14.80;99.90;;;;;;4992670;28;19996;-75
2022/06/18 08:28:56;;;;;;;;;;;14.80;99.90;;;;;;4992483;28;19914;-76
2022/06/18 08:31:23;;;;;;;;;;;14.80;99.90;;;;;;4992055;28;19913;-73
2022/06/18 08:33:50;;;;;;;;;;;14.80;99.90;;;;;;4992267;28;19968;-76
2022/06/18 08:36:17;;;;;;;;;;;14.80;99.90;;;;;;4992147;28;19914;-75
2022/06/18 08:38:45;;;;;;;;;;;14.80;99.90;;;;;;4992141;28;19929;-75
2022/06/18 08:41:27;;;;;;;;;;;14.70;99.90;;;;;;4992213;28;20285;-77
2022/06/18 08:44:09;;;;;;;;;;;14.80;99.90;;;;;;4991729;28;19914;-78
2022/06/18 08:46:59;;;;;;;;;;;14.80;99.90;;;;;;4992286;28;20627;-79
2022/06/18 08:49:28;;;;;;;;;;;14.80;99.90;;;;;;4992261;28;19910;-76
2022/06/18 08:52:08;;;;;;;;;;;14.80;99.90;;;;;;4991519;28;19921;-75
2022/06/18 08:54:44;;;;;;;;;;;14.80;99.90;;;;;;4991902;28;19930;-78
2022/06/18 08:57:11;;;;;;;;;;;14.80;99.90;;;;;;4991480;28;19909;-79
2022/06/18 08:59:40;;;;;;;;;;;14.80;99.90;;;;;;4991854;28;19909;-77
2022/06/18 09:02:25;;;;;;;;;;;14.80;99.90;;;;;;4991954;28;20368;-78
2022/06/18 09:05:10;;;;;;;;;;;14.80;99.90;;;;;;4993056;28;20337;-79
2022/06/18 09:07:42;;;;;;;;;;;14.70;99.90;;;;;;4993616;28;19914;-76
2022/06/18 09:10:29;;;;;;;;;;;14.80;99.90;;;;;;4993827;28;19993;-77
2022/06/18 09:13:02;;;;;;;;;;;14.70;99.90;;;;;;4993679;28;19918;-77
2022/06/18 09:15:31;;;;;;;;;;;14.70;99.90;;;;;;4993528;28;19916;-78
2022/06/18 09:18:01;;;;;;;;;;;14.50;99.90;;;;;;4993446;28;19968;-77
2022/06/18 09:20:34;;;;;;;;;;;14.50;99.90;;;;;;4993525;28;19916;-77
2022/06/18 09:23:05;;;;;;;;;;;14.40;99.90;;;;;;4993589;28;19909;-78
2022/06/18 09:25:35;;;;;;;;;;;14.40;99.90;;;;;;4993593;28;20004;-78
2022/06/18 09:28:10;;;;;;;;;;;14.30;99.90;;;;;;4993622;28;19910;-77
2022/06/18 09:30:43;;;;;;;;;;;14.30;99.90;;;;;;4993689;28;19925;-78
2022/06/18 09:33:10;;;;;;;;;;;14.30;99.90;;;;;;4993175;28;19918;-78
2022/06/18 09:35:41;;;;;;;;;;;14.30;99.90;;;;;;4993187;28;19909;-75
2022/06/18 09:38:26;;;;;;;;;;;14.40;99.90;;;;;;4993090;28;19910;-74
2022/06/18 09:40:54;;;;;;;;;;;14.40;99.90;;;;;;4990798;28;19910;-75
2022/06/18 09:43:42;;;;;;;;;;;14.30;99.90;;;;;;4991391;28;20338;-80
2022/06/18 09:46:29;;;;;;;;;;;14.40;99.90;;;;;;4987297;28;20349;-78
2022/06/18 09:48:55;;;;;;;;;;;14.30;99.90;;;;;;4987464;28;19910;-75
2022/06/18 09:51:28;;;;;;;;;;;14.20;99.90;;;;;;4991159;28;19909;-76
2022/06/18 09:53:58;;;;;;;;;;;14.20;99.90;;;;;;4991038;28;19926;-75
2022/06/18 09:56:30;;;;;;;;;;;14.20;99.90;;;;;;4990704;28;19913;-76
2022/06/18 09:58:58;;;;;;;;;;;14.20;99.90;;;;;;4990984;28;19920;-76
2022/06/18 10:01:36;;;;;;;;;;;14.10;99.90;;;;;;4990986;28;19945;-75
2022/06/18 10:06:58;;;;;;;;;;;13.80;99.90;;;;;;4995050;28;19917;-78
2022/06/18 10:09:33;;;;;;;;;;;13.50;99.90;;;;;;4994761;28;19914;-75
2022/06/18 10:12:06;;;;;;;;;;;13.30;99.90;;;;;;5009378;28;20362;-77
2022/06/18 10:14:33;;;;;;;;;;;13.10;99.90;;;;;;4994839;28;19979;-77
2022/06/18 10:17:28;;;;;;;;;;;12.90;99.90;;;;;;4994736;28;19920;-76
2022/06/18 10:20:02;;;;;;;;;;;12.90;99.90;;;;;;4974880;28;19918;-79
2022/06/18 10:22:37;;;;;;;;;;;12.80;99.90;;;;;;4994838;28;19953;-78
2022/06/18 10:25:22;;;;;;;;;;;12.80;99.90;;;;;;4994465;28;19910;-79
2022/06/18 10:28:12;;;;;;;;;;;12.70;99.90;;;;;;4994592;28;19936;-78
2022/06/18 10:30:47;;;;;;;;;;;12.70;99.90;;;;;;4994508;28;19913;-76
2022/06/18 10:33:26;;;;;;;;;;;12.60;99.90;;;;;;4994603;28;19924;-78
2022/06/18 10:36:08;;;;;;;;;;;12.60;99.90;;;;;;4994326;28;19910;-76
2022/06/18 10:38:46;;;;;;;;;;;12.60;99.90;;;;;;5005250;28;19953;-76
2022/06/18 10:41:17;;;;;;;;;;;12.60;99.90;;;;;;5014277;28;19957;-76
2022/06/18 10:43:47;;;;;;;;;;;12.50;99.90;;;;;;5013777;28;19913;-76
2022/06/18 10:46:16;;;;;;;;;;;12.50;99.90;;;;;;5013793;28;19914;-77
2022/06/18 10:48:45;;;;;;;;;;;12.60;99.90;;;;;;5014245;28;19909;-77
2022/06/18 10:51:16;;;;;;;;;;;12.60;99.90;;;;;;5014003;28;20318;-79
2022/06/18 10:53:48;;;;;;;;;;;12.50;99.90;;;;;;5013645;28;20341;-80
2022/06/18 10:56:16;;;;;;;;;;;12.50;99.90;;;;;;5014038;28;19979;-76
2022/06/18 10:58:54;;;;;;;;;;;12.50;99.90;;;;;;4996592;28;19921;-77
2022/06/18 11:01:25;;;;;;;;;;;12.50;99.90;;;;;;4993749;28;19949;-77
2022/06/18 11:03:53;;;;;;;;;;;12.40;99.90;;;;;;4994036;28;19914;-77
2022/06/18 11:06:20;;;;;;;;;;;12.40;99.90;;;;;;4996469;28;19926;-77
2022/06/18 11:08:51;;;;;;;;;;;12.50;99.90;;;;;;5002321;28;20349;-76
2022/06/18 11:11:21;;;;;;;;;;;12.40;99.90;;;;;;4993498;28;20322;-79
2022/06/18 11:13:49;;;;;;;;;;;12.30;99.90;;;;;;4992444;28;20087;-78
2022/06/18 11:16:17;;;;;;;;;;;12.30;99.90;;;;;;4992695;28;19925;-77
2022/06/18 11:18:47;;;;;;;;;;;12.30;99.90;;;;;;4993171;28;20048;-77
2022/06/18 11:21:34;;;;;;;;;;;12.20;99.90;;;;;;5024494;28;20000;-77
2022/06/18 11:24:07;;;;;;;;;;;12.20;99.90;;;;;;4993361;28;19943;-81
2022/06/18 11:26:33;;;;;;;;;;;12.20;99.90;;;;;;4993287;28;19945;-81
2022/06/18 11:29:04;;;;;;;;;;;12.20;99.90;;;;;;4992884;28;20064;-81
2022/06/18 11:31:36;;;;;;;;;;;12.20;99.90;;;;;;4992905;28;19921;-80
2022/06/18 11:34:28;;;;;;;;;;;12.10;99.90;;;;;;4992753;28;20005;-80
2022/06/18 11:36:56;;;;;;;;;;;12.10;99.90;;;;;;4991859;28;19914;-77
2022/06/18 11:39:23;;;;;;;;;;;12.10;99.90;;;;;;4992922;28;20435;-76
2022/06/18 11:41:50;;;;;;;;;;;12.10;99.90;;;;;;4992798;28;20416;-77
2022/06/18 11:44:29;;;;;;;;;;;12.00;99.90;;;;;;4992459;28;19924;-79
2022/06/18 11:47:05;;;;;;;;;;;12.00;99.90;;;;;;4992285;28;19913;-79
2022/06/18 11:49:37;;;;;;;;;;;12.10;99.90;;;;;;4992548;28;19953;-77
2022/06/18 11:52:09;;;;;;;;;;;12.10;99.90;;;;;;4992821;28;19918;-78
2022/06/18 11:54:48;;;;;;;;;;;12.00;99.90;;;;;;4992458;28;19925;-78
2022/06/18 11:57:33;;;;;;;;;;;12.00;99.90;;;;;;4992403;28;19918;-78
2022/06/18 11:59:59;;;;;;;;;;;12.00;99.90;;;;;;4991429;28;19956;-80
2022/06/18 12:02:29;;;;;;;;;;;11.90;99.90;;;;;;4992365;28;20121;-80
2022/06/18 12:04:58;;;;;;;;;;;11.90;99.90;;;;;;4992493;28;19910;-79
2022/06/18 12:07:54;;;;;;;;;;;11.90;99.90;;;;;;4992351;28;19968;-78
2022/06/18 12:10:25;;;;;;;;;;;11.90;99.90;;;;;;4987482;28;19957;-77
2022/06/18 12:12:59;;;;;;;;;;;11.90;99.90;;;;;;4991848;28;20329;-78
2022/06/18 12:15:37;;;;;;;;;;;12.00;99.90;;;;;;4991488;28;19910;-80
2022/06/18 12:18:07;;;;;;;;;;;12.00;99.90;;;;;;4992261;28;19917;-78
2022/06/18 12:20:36;;;;;;;;;;;12.00;99.90;;;;;;4991975;28;19921;-80
2022/06/18 12:23:18;;;;;;;;;;;12.00;99.90;;;;;;4991919;28;20341;-79
2022/06/18 12:26:03;;;;;;;;;;;12.00;99.90;;;;;;4990414;28;19918;-80
2022/06/18 12:28:30;;;;;;;;;;;12.00;99.90;;;;;;4991849;28;19913;-77
2022/06/18 12:31:10;;;;;;;;;;;12.00;99.90;;;;;;4991712;28;19917;-78
2022/06/18 12:33:57;;;;;;;;;;;12.00;99.90;;;;;;4991748;28;19964;-77
2022/06/18 12:36:42;;;;;;;;;;;11.90;99.90;;;;;;4991969;28;20015;-77
2022/06/18 12:39:30;;;;;;;;;;;11.90;99.90;;;;;;4991963;28;20031;-78
2022/06/18 12:42:02;;;;;;;;;;;12.00;99.90;;;;;;4992160;28;20016;-79
2022/06/18 12:44:35;;;;;;;;;;;12.00;99.90;;;;;;4991551;28;20395;-78
2022/06/18 12:47:19;;;;;;;;;;;12.00;99.90;;;;;;4992232;28;20373;-79
2022/06/18 12:49:46;;;;;;;;;;;11.90;99.90;;;;;;4991547;28;20380;-78
2022/06/18 12:52:32;;;;;;;;;;;11.80;99.90;;;;;;4991615;28;19984;-79
2022/06/18 12:55:11;;;;;;;;;;;11.80;99.90;;;;;;4991483;28;19964;-80
2022/06/18 12:57:56;;;;;;;;;;;11.80;99.90;;;;;;4991533;28;19910;-79
2022/06/18 13:00:33;;;;;;;;;;;11.80;99.90;;;;;;4991520;28;20356;-79
2022/06/18 13:03:18;;;;;;;;;;;11.80;99.90;;;;;;4991865;28;19917;-79
2022/06/18 13:05:47;;;;;;;;;;;11.80;99.90;;;;;;4991305;28;19913;-77
2022/06/18 13:08:17;;;;;;;;;;;11.80;99.90;;;;;;4991703;28;19931;-78
2022/06/18 13:11:01;;;;;;;;;;;11.80;99.90;;;;;;4991637;28;20299;-80
2022/06/18 13:13:28;;;;;;;;;;;11.80;99.90;;;;;;4991028;28;19922;-77
2022/06/18 13:15:58;;;;;;;;;;;11.70;99.90;;;;;;4991756;28;19925;-80
2022/06/18 13:18:37;;;;;;;;;;;11.80;99.90;;;;;;4991685;28;19921;-80
2022/06/18 13:21:07;;;;;;;;;;;11.80;99.90;;;;;;4991370;28;20005;-78
2022/06/18 13:29:09;;;;;;;;;;;11.80;99.90;;;;;;4990824;28;19917;-78
2022/06/18 13:31:42;;;;;;;;;;;11.80;99.90;;;;;;4990525;28;20274;-80
2022/06/18 13:34:28;;;;;;;;;;;11.70;99.90;;;;;;4991174;28;19944;-80
2022/06/18 13:36:58;;;;;;;;;;;11.70;99.90;;;;;;4986968;28;19920;-80
2022/06/18 13:39:33;;;;;;;;;;;11.70;99.90;;;;;;4991232;28;20020;-81
2022/06/18 13:42:04;;;;;;;;;;;11.70;99.90;;;;;;4991172;28;19916;-78
2022/06/18 13:44:43;;;;;;;;;;;11.70;99.90;;;;;;4989762;28;20021;-78
2022/06/18 13:47:13;;;;;;;;;;;11.70;99.90;;;;;;4990863;28;20395;-79
2022/06/18 13:49:40;;;;;;;;;;;11.70;99.90;;;;;;4990800;28;20132;-80
2022/06/18 13:52:07;;;;;;;;;;;11.70;99.90;;;;;;4990669;28;20388;-78
2022/06/18 13:54:45;;;;;;;;;;;11.70;99.90;;;;;;4991011;28;19925;-79
2022/06/18 13:57:12;;;;;;;;;;;11.70;99.90;;;;;;4990609;28;19936;-78
2022/06/18 13:59:48;;;;;;;;;;;11.70;99.90;;;;;;4992006;28;19910;-77
2022/06/18 14:02:23;;;;;;;;;;;11.70;99.90;;;;;;5020600;28;19925;-79
2022/06/18 14:04:57;;;;;;;;;;;11.70;99.90;;;;;;5030265;28;20020;-79
2022/06/18 14:07:26;;;;;;;;;;;11.70;99.90;;;;;;5030972;28;19909;-80
2022/06/18 14:09:53;;;;;;;;;;;11.70;99.90;;;;;;5030509;28;19913;-79
2022/06/18 14:12:26;;;;;;;;;;;11.70;99.90;;;;;;5030194;28;20291;-77
2022/06/18 14:15:04;;;;;;;;;;;11.60;99.90;;;;;;5030630;28;19913;-79
2022/06/18 14:17:42;;;;;;;;;;;11.60;99.90;;;;;;5030292;28;20000;-79
2022/06/18 14:20:28;;;;;;;;;;;11.60;99.90;;;;;;5030760;28;20011;-78
2022/06/18 14:23:00;;;;;;;;;;;11.70;99.90;;;;;;5030022;28;19913;-79
2022/06/18 14:25:27;;;;;;;;;;;11.70;99.90;;;;;;5030710;28;19920;-76
2022/06/18 14:27:55;;;;;;;;;;;11.70;99.90;;;;;;5062298;28;19919;-79
2022/06/18 14:30:21;;;;;;;;;;;11.70;99.90;;;;;;5029200;28;19910;-79
2022/06/18 14:33:17;;;;;;;;;;;11.70;99.90;;;;;;5030604;28;19921;-78
2022/06/18 14:35:50;;;;;;;;;;;11.60;99.90;;;;;;5025405;28;19963;-79
2022/06/18 14:38:16;;;;;;;;;;;11.70;99.90;;;;;;5030759;28;19917;-78
2022/06/18 14:43:40;;;;;;;;;;;11.70;99.90;;;;;;5030679;28;19955;-77
2022/06/18 14:46:30;;;;;;;;;;;11.60;99.90;;;;;;5030576;28;19955;-78
2022/06/18 14:49:15;;;;;;;;;;;11.60;99.90;;;;;;5028919;28;19913;-76
2022/06/18 14:51:42;;;;;;;;;;;11.60;99.90;;;;;;5034090;28;20380;-77
2022/06/18 14:54:14;;;;;;;;;;;11.60;99.90;;;;;;5034017;28;19931;-77
2022/06/18 14:56:53;;;;;;;;;;;11.60;99.90;;;;;;5034203;28;19910;-77
2022/06/18 14:59:20;;;;;;;;;;;11.70;99.90;;;;;;5033997;28;20339;-77
2022/06/18 15:01:47;;;;;;;;;;;11.60;99.90;;;;;;5033539;28;20249;-77